createdAt,value
2022-12-11T00:01:10.617Z,23.85
2022-12-11T00:03:39.147Z,26.20
2022-12-11T00:06:10.164Z,26.33
2022-12-11T00:08:38.361Z,25.08
2022-12-11T00:11:06.789Z,27.95
2022-12-11T00:13:34.746Z,21.35
2022-12-11T00:16:02.722Z,28.63
2022-12-11T00:21:01.520Z,24.20
2022-12-11T00:23:30.940Z,28.10
2022-12-11T00:25:59.464Z,26.98
2022-12-11T00:28:27.702Z,21.95
2022-12-11T00:30:55.618Z,23.90
2022-12-11T00:35:51.220Z,24.38
2022-12-11T00:40:50.082Z,19.25
2022-12-11T00:43:18.527Z,28.48
2022-12-11T00:45:48.176Z,20.25
2022-12-11T00:48:16.150Z,22.75
2022-12-11T00:53:11.831Z,22.20
2022-12-11T00:58:10.395Z,25.52
2022-12-11T01:00:42.332Z,23.58
2022-12-11T01:03:10.888Z,24.42
2022-12-11T01:05:38.810Z,22.15
2022-12-11T01:08:07.221Z,25.65
2022-12-11T01:10:34.620Z,19.17
2022-12-11T01:13:04.670Z,23.15
2022-12-11T01:15:41.075Z,21.60
2022-12-11T01:18:10.068Z,20.58
2022-12-11T01:20:40.012Z,25.38
2022-12-11T01:23:08.327Z,26.25
2022-12-11T01:25:39.046Z,20.83
2022-12-11T01:28:07.922Z,23.50
2022-12-11T01:30:37.656Z,26.33
2022-12-11T01:33:05.684Z,28.88
2022-12-11T01:38:02.851Z,18.88
2022-12-11T01:40:30.808Z,20.23
2022-12-11T01:42:58.736Z,27.35
2022-12-11T01:48:07.673Z,20.60
2022-12-11T01:50:39.626Z,19.58
2022-12-11T01:53:09.966Z,19.55
2022-12-11T01:55:39.857Z,20.67
2022-12-11T01:58:09.426Z,22.75
2022-12-11T02:00:37.385Z,19.45
2022-12-11T02:03:06.633Z,23.95
2022-12-11T02:05:34.789Z,18.08
2022-12-11T02:08:04.053Z,20.00
2022-12-11T02:10:44.214Z,22.55
2022-12-11T02:15:49.812Z,21.58
2022-12-11T02:18:26.427Z,21.65
2022-12-11T02:20:59.862Z,19.92
2022-12-11T02:24:25.902Z,17.95
2022-12-11T02:27:12.437Z,20.58
2022-12-11T02:29:48.282Z,18.77
2022-12-11T02:32:20.441Z,16.38
2022-12-11T02:34:55.164Z,18.63
2022-12-11T02:37:25.852Z,15.93
2022-12-11T02:39:55.982Z,20.08
2022-12-11T02:42:29.352Z,19.70
2022-12-11T02:45:01.202Z,18.38
2022-12-11T02:47:32.049Z,18.40
2022-12-11T02:50:03.105Z,17.48
2022-12-11T02:52:34.131Z,14.82
2022-12-11T02:55:04.510Z,16.45
2022-12-11T02:57:39.218Z,15.40
2022-12-11T03:00:10.383Z,24.17
2022-12-11T03:02:39.402Z,13.52
2022-12-11T03:05:08.656Z,18.63
2022-12-11T03:07:40.427Z,18.60
2022-12-11T03:10:10.986Z,16.30
2022-12-11T03:12:41.425Z,16.45
2022-12-11T03:15:15.701Z,20.55
2022-12-11T03:17:56.074Z,19.90
2022-12-11T03:20:35.720Z,13.23
2022-12-11T03:23:14.537Z,17.63
2022-12-11T03:25:47.766Z,15.50
2022-12-11T03:28:19.944Z,13.65
2022-12-11T03:30:52.405Z,16.08
2022-12-11T03:33:24.964Z,14.60
2022-12-11T03:35:57.117Z,18.92
2022-12-11T03:38:29.300Z,16.65
2022-12-11T03:41:02.241Z,15.82
2022-12-11T03:43:31.984Z,18.60
2022-12-11T03:46:02.025Z,18.50
2022-12-11T03:48:34.731Z,15.98
2022-12-11T03:51:06.365Z,19.58
2022-12-11T03:53:35.410Z,16.45
2022-12-11T03:56:04.913Z,21.88
2022-12-11T03:58:33.213Z,18.02
2022-12-11T04:01:02.558Z,18.23
2022-12-11T04:03:30.446Z,16.85
2022-12-11T04:05:58.487Z,20.20
2022-12-11T04:08:26.374Z,18.45
2022-12-11T04:11:14.983Z,17.45
2022-12-11T04:13:43.353Z,15.57
2022-12-11T04:16:11.692Z,17.80
2022-12-11T04:18:56.935Z,19.20
2022-12-11T04:21:42.309Z,18.55
2022-12-11T04:24:16.024Z,19.23
2022-12-11T04:26:44.611Z,20.95
2022-12-11T04:29:12.615Z,19.55
2022-12-11T04:31:41.990Z,22.10
2022-12-11T04:34:10.501Z,18.90
2022-12-11T04:36:38.779Z,18.23
2022-12-11T04:39:07.358Z,21.40
2022-12-11T04:41:35.306Z,20.38
2022-12-11T04:44:03.207Z,20.20
2022-12-11T04:46:31.418Z,16.25
2022-12-11T04:49:00.867Z,18.17
2022-12-11T04:51:29.296Z,22.52
2022-12-11T04:53:57.174Z,19.75
2022-12-11T04:58:52.799Z,21.58
2022-12-11T05:01:23.307Z,21.25
2022-12-11T05:03:51.981Z,14.25
2022-12-11T05:06:21.211Z,23.67
2022-12-11T05:08:49.095Z,17.73
2022-12-11T05:13:46.228Z,14.23
2022-12-11T05:16:17.392Z,17.27
2022-12-11T05:18:45.513Z,13.32
2022-12-11T05:21:15.264Z,17.58
2022-12-11T05:23:44.709Z,18.60
2022-12-11T05:26:14.623Z,24.60
2022-12-11T05:28:43.169Z,18.83
2022-12-11T05:31:15.129Z,15.50
2022-12-11T05:33:43.615Z,19.00
2022-12-11T05:36:16.849Z,18.08
2022-12-11T05:38:46.442Z,16.85
2022-12-11T05:41:16.362Z,20.90
2022-12-11T05:43:44.474Z,17.70
2022-12-11T05:46:14.613Z,18.50
2022-12-11T05:48:43.785Z,20.13
2022-12-11T05:51:12.314Z,20.23
2022-12-11T05:53:41.532Z,18.77
2022-12-11T05:56:13.513Z,13.93
2022-12-11T05:58:42.439Z,19.90
2022-12-11T06:01:12.257Z,18.90
2022-12-11T06:03:40.305Z,17.75
2022-12-11T06:06:08.769Z,19.63
2022-12-11T06:08:36.743Z,17.90
2022-12-11T06:11:04.929Z,20.85
2022-12-11T06:13:35.367Z,18.15
2022-12-11T06:16:05.561Z,16.00
2022-12-11T06:18:37.339Z,18.10
2022-12-11T06:21:12.853Z,14.85
2022-12-11T06:23:41.366Z,24.42
2022-12-11T06:26:09.388Z,20.83
2022-12-11T06:28:38.927Z,18.45
2022-12-11T06:31:08.119Z,16.52
2022-12-11T06:33:36.784Z,15.18
2022-12-11T06:36:05.744Z,16.35
2022-12-11T06:38:33.714Z,17.05
2022-12-11T06:41:04.719Z,20.58
2022-12-11T06:43:32.816Z,17.30
2022-12-11T06:46:04.966Z,20.00
2022-12-11T06:48:33.262Z,13.60
2022-12-11T06:51:01.387Z,18.10
2022-12-11T06:53:29.376Z,20.23
2022-12-11T06:58:25.270Z,13.70
2022-12-11T07:00:53.192Z,14.55
2022-12-11T07:05:51.727Z,18.60
2022-12-11T07:08:19.702Z,19.17
2022-12-11T07:10:47.593Z,17.40
2022-12-11T07:15:43.254Z,17.30
2022-12-11T07:18:11.226Z,17.90
2022-12-11T07:23:08.138Z,18.25
2022-12-11T07:25:37.911Z,18.27
2022-12-11T07:28:06.138Z,18.75
2022-12-11T07:30:34.082Z,16.38
2022-12-11T07:33:02.318Z,15.88
2022-12-11T07:35:31.094Z,17.75
2022-12-11T07:38:00.479Z,17.30
2022-12-11T07:40:28.765Z,22.48
2022-12-11T07:42:56.646Z,17.48
2022-12-11T07:47:54.195Z,15.18
2022-12-11T07:52:49.942Z,16.60
2022-12-11T07:57:47.017Z,19.67
2022-12-11T08:00:15.605Z,19.52
2022-12-11T08:02:43.586Z,19.10
2022-12-11T08:05:12.373Z,16.27
2022-12-11T08:07:41.008Z,20.50
2022-12-11T08:10:09.415Z,22.92
2022-12-11T08:12:38.649Z,19.33
2022-12-11T08:15:08.047Z,19.80
2022-12-11T08:17:39.982Z,18.58
2022-12-11T08:20:09.482Z,18.65
2022-12-11T08:22:37.388Z,17.52
2022-12-11T08:25:05.905Z,20.88
2022-12-11T08:27:33.819Z,20.83
2022-12-11T08:32:31.042Z,21.05
2022-12-11T08:37:26.705Z,19.58
2022-12-11T08:39:54.741Z,20.58
2022-12-11T08:42:22.682Z,20.15
2022-12-11T08:44:51.710Z,27.80
2022-12-11T08:47:23.035Z,21.50
2022-12-11T08:49:50.978Z,22.58
2022-12-11T08:54:46.686Z,18.17
2022-12-11T08:57:15.198Z,19.40
2022-12-11T08:59:43.177Z,20.73
2022-12-11T09:02:12.541Z,20.52
2022-12-11T09:04:42.428Z,24.17
2022-12-11T09:07:10.326Z,19.65
2022-12-11T09:12:06.484Z,19.63
2022-12-11T09:14:35.460Z,14.60
2022-12-11T09:17:05.447Z,17.35
2022-12-11T09:19:33.399Z,16.73
2022-12-11T09:22:02.779Z,16.55
2022-12-11T09:24:30.756Z,19.55
2022-12-11T09:26:58.688Z,19.85
2022-12-11T09:29:26.629Z,17.63
2022-12-11T09:34:28.887Z,18.25
2022-12-11T09:36:57.604Z,18.98
2022-12-11T09:39:26.931Z,20.73
2022-12-11T09:42:02.210Z,22.63
2022-12-11T09:44:43.250Z,17.30
2022-12-11T09:47:28.569Z,20.45
2022-12-11T09:50:04.478Z,20.42
2022-12-11T09:52:36.962Z,17.30
2022-12-11T09:55:15.966Z,20.95
2022-12-11T09:57:54.263Z,16.42
2022-12-11T10:00:29.909Z,15.90
2022-12-11T10:03:34.056Z,16.50
2022-12-11T10:06:08.378Z,20.65
2022-12-11T10:08:42.901Z,16.67
2022-12-11T10:11:27.037Z,20.58
2022-12-11T10:14:06.289Z,18.73
2022-12-11T10:16:40.049Z,18.85
2022-12-11T10:19:15.804Z,19.52
2022-12-11T10:21:44.327Z,19.23
2022-12-11T10:24:41.880Z,27.48
2022-12-11T10:27:16.162Z,17.15
2022-12-11T10:29:44.260Z,24.63
2022-12-11T10:32:22.548Z,19.80
2022-12-11T10:34:57.782Z,17.40
2022-12-11T10:37:25.778Z,22.20
2022-12-11T10:39:53.886Z,19.40
2022-12-11T10:42:24.186Z,16.05
2022-12-11T10:45:00.505Z,22.40
2022-12-11T10:47:29.298Z,19.77
2022-12-11T10:49:58.872Z,16.90
2022-12-11T10:52:31.595Z,17.67
2022-12-11T10:55:03.079Z,17.27
2022-12-11T10:57:35.170Z,23.92
2022-12-11T11:00:06.053Z,18.30
2022-12-11T11:02:38.433Z,16.60
2022-12-11T11:05:14.490Z,17.67
2022-12-11T11:07:42.761Z,15.60
2022-12-11T11:10:17.491Z,11.77
2022-12-11T11:12:48.238Z,12.57
2022-12-11T11:15:19.165Z,12.98
2022-12-11T11:17:54.944Z,15.65
2022-12-11T11:20:25.568Z,13.50
2022-12-11T11:22:55.891Z,13.10
2022-12-11T11:25:26.607Z,11.45
2022-12-11T11:27:58.948Z,12.98
2022-12-11T11:30:30.370Z,13.85
2022-12-11T11:33:00.753Z,11.57
2022-12-11T11:35:30.245Z,13.70
2022-12-11T11:38:05.165Z,13.43
2022-12-11T11:40:38.805Z,15.93
2022-12-11T11:43:18.270Z,14.48
2022-12-11T11:45:54.695Z,15.98
2022-12-11T11:48:36.746Z,25.13
2022-12-11T11:51:14.910Z,18.88
2022-12-11T11:53:48.949Z,12.90
2022-12-11T11:56:26.687Z,17.70
2022-12-11T11:59:08.453Z,16.63
2022-12-11T12:01:36.534Z,10.95
2022-12-11T12:04:05.768Z,11.98
2022-12-11T12:06:50.555Z,13.27
2022-12-11T12:09:29.646Z,18.30
2022-12-11T12:12:07.831Z,16.77
2022-12-11T12:14:52.630Z,12.90
2022-12-11T12:17:27.763Z,11.98
2022-12-11T12:20:04.194Z,16.58
2022-12-11T12:22:50.738Z,14.45
2022-12-11T12:25:24.555Z,11.13
2022-12-11T12:30:32.505Z,15.50
2022-12-11T12:33:16.213Z,13.07
2022-12-11T12:35:55.072Z,13.73
2022-12-11T12:38:28.733Z,16.63
2022-12-11T12:41:14.045Z,16.20
2022-12-11T12:43:55.991Z,16.60
2022-12-11T12:46:39.624Z,14.65
2022-12-11T12:49:14.859Z,16.88
2022-12-11T12:51:44.571Z,14.68
2022-12-11T12:54:18.991Z,13.98
2022-12-11T12:56:49.022Z,16.50
2022-12-11T12:59:22.881Z,15.80
2022-12-11T13:07:30.667Z,15.18
2022-12-11T13:10:06.204Z,15.13
2022-12-11T13:12:42.571Z,12.02
2022-12-11T13:15:26.027Z,15.10
2022-12-11T13:17:55.917Z,18.17
2022-12-11T13:20:26.500Z,15.63
2022-12-11T13:23:16.133Z,14.70
2022-12-11T13:25:50.965Z,15.48
2022-12-11T13:28:25.845Z,14.05
2022-12-11T13:31:02.599Z,14.77
2022-12-11T13:33:33.398Z,17.90
2022-12-11T13:36:28.618Z,17.27
2022-12-11T13:38:59.650Z,11.02
2022-12-11T13:41:28.635Z,14.98
2022-12-11T13:43:58.727Z,18.25
2022-12-11T13:46:30.224Z,15.23
2022-12-11T13:49:02.800Z,17.10
2022-12-11T13:51:34.908Z,15.90
2022-12-11T13:54:16.955Z,14.50
2022-12-11T13:57:00.428Z,17.13
2022-12-11T13:59:31.287Z,14.73
2022-12-11T14:02:03.959Z,16.83
2022-12-11T14:04:35.444Z,16.23
2022-12-11T14:07:07.302Z,21.10
2022-12-11T14:09:37.933Z,20.45
2022-12-11T14:12:06.517Z,15.95
2022-12-11T14:14:42.907Z,17.65
2022-12-11T14:17:15.124Z,18.23
2022-12-11T14:19:50.762Z,19.98
2022-12-11T14:22:21.252Z,15.85
2022-12-11T14:24:51.047Z,15.45
2022-12-11T14:27:19.833Z,18.85
2022-12-11T14:29:48.579Z,20.85
2022-12-11T14:32:25.101Z,17.80
2022-12-11T14:34:55.301Z,24.42
2022-12-11T14:37:24.869Z,18.63
2022-12-11T14:39:59.365Z,18.20
2022-12-11T14:42:31.191Z,19.95
2022-12-11T14:45:04.494Z,22.17
2022-12-11T14:47:40.026Z,15.25
2022-12-11T14:50:18.481Z,16.17
2022-12-11T14:52:49.055Z,21.85
2022-12-11T14:55:21.077Z,17.55
2022-12-11T14:57:55.172Z,16.35
2022-12-11T15:00:25.779Z,21.50
2022-12-11T15:03:01.856Z,20.08
2022-12-11T15:05:38.831Z,21.27
2022-12-11T15:08:24.589Z,19.00
2022-12-11T15:11:05.679Z,20.23
2022-12-11T15:13:34.795Z,18.95
2022-12-11T15:16:04.188Z,19.08
2022-12-11T15:18:35.241Z,20.23
2022-12-11T15:21:09.432Z,18.67
2022-12-11T15:23:48.422Z,22.70
2022-12-11T15:26:16.289Z,21.00
2022-12-11T15:28:44.514Z,20.73
2022-12-11T15:31:26.354Z,22.55
2022-12-11T15:33:54.585Z,24.35
2022-12-11T15:36:27.594Z,28.35
2022-12-11T15:38:55.564Z,25.17
2022-12-11T15:43:58.373Z,22.13
2022-12-11T15:46:27.498Z,20.02
2022-12-11T15:48:59.420Z,22.60
2022-12-11T15:51:29.190Z,20.73
2022-12-11T15:53:57.056Z,21.33
2022-12-11T15:56:24.930Z,26.27
2022-12-11T16:01:20.786Z,30.65
2022-12-11T16:03:50.374Z,35.70
2022-12-11T16:06:18.290Z,45.40
2022-12-11T16:08:47.946Z,42.92
2022-12-11T16:11:15.923Z,50.97
2022-12-11T16:16:11.693Z,32.40
2022-12-11T16:18:39.639Z,36.78
2022-12-11T16:21:09.300Z,44.33
2022-12-11T16:26:09.930Z,26.15
2022-12-11T16:28:37.966Z,30.40
2022-12-11T16:31:11.654Z,35.33
2022-12-11T16:33:39.698Z,31.75
2022-12-11T16:36:14.645Z,31.65
2022-12-11T16:38:49.811Z,32.80
2022-12-11T16:41:23.662Z,44.53
2022-12-11T16:43:52.265Z,33.08
2022-12-11T16:46:21.133Z,30.77
2022-12-11T16:48:49.164Z,31.38
2022-12-11T16:51:17.929Z,43.70
2022-12-11T16:53:46.071Z,36.65
2022-12-11T16:56:13.978Z,28.25
2022-12-11T17:01:12.101Z,27.00
2022-12-11T17:03:41.896Z,29.88
2022-12-11T17:06:10.902Z,29.08
2022-12-11T17:08:39.279Z,29.48
2022-12-11T17:11:08.467Z,31.83
2022-12-11T17:13:36.624Z,25.35
2022-12-11T17:16:07.402Z,26.52
2022-12-11T17:18:35.447Z,27.17
2022-12-11T17:23:35.737Z,28.67
2022-12-11T17:26:03.787Z,26.73
2022-12-11T17:28:32.274Z,29.45
2022-12-11T17:31:00.212Z,29.40
2022-12-11T17:36:00.496Z,60.60
2022-12-11T17:38:28.517Z,45.53
2022-12-11T17:40:56.612Z,29.55
2022-12-11T17:43:24.900Z,48.50
2022-12-11T17:45:55.057Z,29.90
2022-12-11T17:48:23.120Z,24.30
2022-12-11T17:50:54.039Z,30.50
2022-12-11T17:53:23.502Z,26.45
2022-12-11T17:55:52.136Z,28.10
2022-12-11T17:58:22.047Z,33.25
2022-12-11T18:00:52.153Z,33.42
2022-12-11T18:03:20.261Z,28.80
2022-12-11T18:05:50.507Z,31.90
2022-12-11T18:08:21.391Z,24.75
2022-12-11T18:10:49.498Z,29.20
2022-12-11T18:13:17.513Z,31.98
2022-12-11T18:15:45.791Z,30.92
2022-12-11T18:18:14.077Z,27.60
2022-12-11T18:20:42.022Z,33.10
2022-12-11T18:25:39.063Z,23.40
2022-12-11T18:28:07.204Z,32.38
2022-12-11T18:33:03.103Z,24.52
2022-12-11T18:37:59.773Z,25.48
2022-12-11T18:40:28.728Z,27.08
2022-12-11T18:42:59.251Z,25.95
2022-12-11T18:45:27.220Z,24.05
2022-12-11T18:47:56.452Z,25.35
2022-12-11T18:50:24.429Z,19.73
2022-12-11T18:55:22.112Z,24.75
2022-12-11T19:00:20.102Z,23.48
2022-12-11T19:02:51.438Z,26.35
2022-12-11T19:05:19.879Z,28.48
2022-12-11T19:07:47.951Z,25.83
2022-12-11T19:10:15.985Z,23.17
2022-12-11T19:12:43.885Z,20.92
2022-12-11T19:15:12.948Z,26.55
2022-12-11T19:17:43.450Z,27.75
2022-12-11T19:20:40.408Z,23.73
2022-12-11T19:23:00.823Z,22.27
2022-12-11T19:25:28.881Z,25.27
2022-12-11T19:27:57.444Z,30.88
2022-12-11T19:30:25.949Z,24.45
2022-12-11T19:32:55.846Z,31.95
2022-12-11T19:35:23.984Z,28.35
2022-12-11T19:40:21.695Z,36.58
2022-12-11T19:42:49.589Z,28.83
2022-12-11T19:45:18.230Z,30.40
2022-12-11T19:47:46.193Z,31.25
2022-12-11T19:52:46.341Z,28.27
2022-12-11T19:55:15.703Z,36.80
2022-12-11T19:57:44.270Z,38.13
2022-12-11T20:02:40.760Z,31.98
2022-12-11T20:05:10.042Z,36.85
2022-12-11T20:07:40.047Z,38.95
2022-12-11T20:10:09.192Z,35.40
2022-12-11T20:12:37.205Z,36.17
2022-12-11T20:17:34.349Z,38.83
2022-12-11T20:20:02.412Z,39.20
2022-12-11T20:24:59.644Z,40.20
2022-12-11T20:27:28.502Z,43.92
2022-12-11T20:29:56.513Z,37.15
2022-12-11T20:32:24.765Z,42.42
2022-12-11T20:34:56.518Z,34.05
2022-12-11T20:37:28.881Z,34.22
2022-12-11T20:39:56.991Z,31.38
2022-12-11T20:44:54.324Z,32.28
2022-12-11T20:47:22.684Z,32.47
2022-12-11T20:49:52.372Z,32.72
2022-12-11T20:52:20.860Z,29.27
2022-12-11T20:54:48.811Z,40.67
2022-12-11T20:59:46.384Z,36.28
2022-12-11T21:02:14.337Z,37.10
2022-12-11T21:07:11.068Z,37.42
2022-12-11T21:09:39.855Z,33.15
2022-12-11T21:12:08.358Z,34.25
2022-12-11T21:14:36.785Z,35.05
2022-12-11T21:17:06.679Z,36.75
2022-12-11T21:19:34.662Z,41.40
2022-12-11T21:22:03.680Z,35.65
2022-12-11T21:24:32.318Z,38.05
2022-12-11T21:27:00.233Z,36.35
2022-12-11T21:29:29.941Z,41.33
2022-12-11T21:31:58.650Z,35.83
2022-12-11T21:34:28.489Z,27.95
2022-12-11T21:36:57.148Z,32.45
2022-12-11T21:39:26.314Z,37.45
2022-12-11T21:41:54.445Z,38.10
2022-12-11T21:47:10.448Z,36.53
2022-12-11T21:52:08.341Z,33.60
2022-12-11T21:54:36.562Z,37.35
2022-12-11T21:57:05.896Z,32.25
2022-12-11T21:59:33.949Z,34.22
2022-12-11T22:04:29.730Z,32.22
2022-12-11T22:09:27.232Z,30.67
2022-12-11T22:11:58.531Z,31.02
2022-12-11T22:14:27.316Z,35.88
2022-12-11T22:16:55.324Z,43.38
2022-12-11T22:21:57.026Z,47.20
2022-12-11T22:24:26.311Z,38.83
2022-12-11T22:26:54.756Z,41.00
2022-12-11T22:29:22.701Z,34.63
2022-12-11T22:31:50.594Z,35.42
2022-12-11T22:34:18.945Z,33.20
2022-12-11T22:36:46.825Z,42.92
2022-12-11T22:39:15.222Z,37.35
2022-12-11T22:41:44.501Z,44.30
2022-12-11T22:44:15.962Z,40.65
2022-12-11T22:46:49.723Z,37.40
2022-12-11T22:49:18.693Z,31.80
2022-12-11T22:51:46.644Z,47.95
2022-12-11T22:54:14.591Z,34.88
2022-12-11T22:56:43.874Z,35.90
2022-12-11T22:59:11.948Z,44.60
2022-12-11T23:01:40.406Z,37.15
2022-12-11T23:04:08.479Z,34.45
2022-12-11T23:09:05.489Z,37.67
2022-12-11T23:11:36.249Z,38.13
2022-12-11T23:14:07.514Z,32.97
2022-12-11T23:16:35.822Z,35.35
2022-12-11T23:19:04.741Z,36.65
2022-12-11T23:21:33.289Z,36.80
2022-12-11T23:24:01.612Z,46.58
2022-12-11T23:26:29.752Z,34.33
2022-12-11T23:31:28.370Z,39.72
2022-12-11T23:33:57.220Z,37.40
2022-12-11T23:36:26.471Z,43.75
2022-12-11T23:38:55.345Z,37.88
2022-12-11T23:41:24.236Z,41.67
2022-12-11T23:43:52.928Z,43.58
2022-12-11T23:46:22.757Z,36.22
2022-12-11T23:48:53.445Z,37.47
2022-12-11T23:51:22.971Z,44.80
2022-12-11T23:53:51.476Z,39.00
2022-12-11T23:56:22.204Z,46.92
2022-12-11T23:58:50.192Z,33.40
